Hauptseite
METAR-TAF:

METAR-TAF

Flughäfen :

Brescia, Italien

Montichiari

Breite: 45-24-02N, Länge: 010-18-59E, Höhe: 104 m

Beobachtung

Neuester Wetterbericht von vor 27 Minuten, um 23:50 UTC
Wind 5 kt aus Nordost
Temperatur 3°C
Luftfeuchtigkeit 93%
Luftdruck 1019 hPa
Sichtweite: 5000 m
feuchter Dunst

METAR: LIPO 192350Z 04005KT 5000 BR NSC 03/02 Q1019

Zeit: 01:17 (00:17 UTC)

Prognose

Neuester Wetterbericht von vor 1 Stunde und 17 Minuten, um 23:00 UTC
Gültige Prognose vom 20 um 00 UTC bis 20 um 24 UTC
Wind 5 kt aus unterschiedlichen Richtungen
Sichtweite: 4000 m
feuchter Dunst
Zeitweise
vom 20 um 00 UTC bis 20 um 07 UTC
Sichtweite: 1200 m
Nebelschwaden

TAF: LIPO 192300Z 2000/2024 VRB05KT 4000 BR NSC TEMPO 2000/2007 1200 BCFG

Wetterbeobachtungen und Prognosen von mehr als 4000 Flughäfen (METAR und TAF Bericht).

Die verfügbaren Stationen werden durch gelbe und rote Markierungen auf der Karte dargestellt.

Führen Sie die Maus auf sie, um den Namen der Station zu sehen.

Darauf klicken, um die Beobachtung von Wetterbeobachtungen und Prognosen zu sehen.

Um die Karte zu ändern : klicken Sie auf den grünen Tasten mit einem schwarzen Kreuz Zum Vergrößern, auf den grünen Button mit einem Gedankenstrich zu verkleinern, oder auf die grünen Pfeile für benachbarte Karten.


METAR-TAF: